createdAt,value
2023-05-14T00:02:20.411Z,101161.50
2023-05-14T00:04:50.400Z,101172.75
2023-05-14T00:07:20.688Z,101160.28
2023-05-14T00:09:50.536Z,101163.41
2023-05-14T00:12:20.873Z,101159.13
2023-05-14T00:14:50.575Z,101164.44
2023-05-14T00:17:21.258Z,101160.88
2023-05-14T00:19:51.461Z,101164.19
2023-05-14T00:22:21.790Z,101165.00
2023-05-14T00:24:51.789Z,101166.13
2023-05-14T00:27:22.142Z,101165.44
2023-05-14T00:29:52.011Z,101175.53
2023-05-14T00:32:22.514Z,101173.88
2023-05-14T00:34:52.402Z,101178.63
2023-05-14T00:37:22.806Z,101170.38
2023-05-14T00:39:52.690Z,101179.25
2023-05-14T00:42:23.002Z,101179.84
2023-05-14T00:44:52.922Z,101190.25
2023-05-14T00:47:23.624Z,101190.41
2023-05-14T00:49:53.669Z,101196.78
2023-05-14T00:52:24.201Z,101194.69
2023-05-14T00:54:54.207Z,101196.31
2023-05-14T00:57:24.578Z,101198.78
2023-05-14T00:59:55.104Z,101199.22
2023-05-14T01:02:25.700Z,101195.56
2023-05-14T01:04:56.202Z,101195.91
2023-05-14T01:07:48.514Z,101203.81
2023-05-14T01:10:40.407Z,101213.31
2023-05-14T01:13:28.260Z,101216.16
2023-05-14T01:16:01.492Z,101201.97
2023-05-14T01:18:34.875Z,101209.34
2023-05-14T01:21:05.022Z,101198.28
2023-05-14T01:23:35.337Z,101192.69
2023-05-14T01:26:06.174Z,101177.00
2023-05-14T01:28:39.153Z,101180.31
2023-05-14T01:31:16.543Z,101173.38
2023-05-14T01:33:49.306Z,101178.03
2023-05-14T01:36:19.659Z,101168.75
2023-05-14T01:38:52.314Z,101167.03
2023-05-14T01:41:23.825Z,101167.19
2023-05-14T01:43:54.517Z,101165.75
2023-05-14T01:46:26.240Z,101163.34
2023-05-14T01:48:56.687Z,101159.06
2023-05-14T01:51:27.299Z,101155.28
2023-05-14T01:53:57.658Z,101154.03
2023-05-14T01:56:28.175Z,101144.00
2023-05-14T01:58:58.646Z,101164.84
2023-05-14T02:01:28.579Z,101165.56
2023-05-14T02:03:59.051Z,101163.47
2023-05-14T02:06:29.141Z,101166.84
2023-05-14T02:08:59.524Z,101164.69
2023-05-14T02:11:29.900Z,101170.56
2023-05-14T02:14:00.272Z,101172.69
2023-05-14T02:16:30.079Z,101173.03
2023-05-14T02:19:00.736Z,101177.41
2023-05-14T02:21:30.652Z,101175.69
2023-05-14T02:24:01.070Z,101173.50
2023-05-14T02:26:31.043Z,101176.66
2023-05-14T02:29:01.779Z,101180.28
2023-05-14T02:31:32.130Z,101181.84
2023-05-14T02:34:07.889Z,101194.78
2023-05-14T02:36:37.844Z,101185.91
2023-05-14T02:39:08.280Z,101189.16
2023-05-14T02:41:38.161Z,101172.72
2023-05-14T02:44:08.463Z,101183.63
2023-05-14T02:46:38.418Z,101172.75
2023-05-14T02:49:08.850Z,101179.00
2023-05-14T02:51:39.791Z,101177.03
2023-05-14T02:54:10.116Z,101177.31
2023-05-14T02:56:40.065Z,101179.56
2023-05-14T02:59:10.632Z,101177.94
2023-05-14T03:01:41.165Z,101177.66
2023-05-14T03:04:12.208Z,101185.13
2023-05-14T03:06:42.209Z,101180.66
2023-05-14T03:09:12.789Z,101167.22
2023-05-14T03:11:42.743Z,101180.69
2023-05-14T03:14:13.103Z,101177.59
2023-05-14T03:16:43.356Z,101164.16
2023-05-14T03:19:14.741Z,101176.56
2023-05-14T03:21:44.803Z,101177.72
2023-05-14T03:24:15.134Z,101178.63
2023-05-14T03:26:46.966Z,101162.03
2023-05-14T03:29:19.180Z,101168.53
2023-05-14T03:31:49.164Z,101172.59
2023-05-14T03:34:19.565Z,101184.44
2023-05-14T03:36:49.284Z,101180.72
2023-05-14T03:39:22.467Z,101186.31
2023-05-14T03:41:52.559Z,101190.50
2023-05-14T03:44:23.054Z,101188.78
2023-05-14T03:46:52.938Z,101187.97
2023-05-14T03:49:23.404Z,101168.69
2023-05-14T03:51:53.307Z,101181.06
2023-05-14T03:54:23.658Z,101177.31
2023-05-14T03:56:53.355Z,101183.66
2023-05-14T03:59:23.700Z,101183.75
2023-05-14T04:01:53.399Z,101174.91
2023-05-14T04:04:23.737Z,101171.66
2023-05-14T04:06:53.533Z,101172.41
2023-05-14T04:09:24.544Z,101181.13
2023-05-14T04:11:54.458Z,101182.69
2023-05-14T04:14:24.909Z,101174.53
2023-05-14T04:16:55.216Z,101167.69
2023-05-14T04:19:25.684Z,101159.16
2023-05-14T04:21:55.567Z,101158.22
2023-05-14T04:24:25.325Z,101152.88
2023-05-14T04:26:56.036Z,101158.16
2023-05-14T04:29:26.838Z,101146.72
2023-05-14T04:31:57.248Z,101141.44
2023-05-14T04:34:27.526Z,101145.06
2023-05-14T04:36:58.099Z,101150.16
2023-05-14T04:39:28.051Z,101144.22
2023-05-14T04:41:58.447Z,101137.97
2023-05-14T04:44:28.572Z,101128.34
2023-05-14T04:46:58.871Z,101128.59
2023-05-14T04:49:29.004Z,101132.88
2023-05-14T04:51:59.605Z,101128.34
2023-05-14T04:54:29.780Z,101132.69
2023-05-14T04:57:04.269Z,101123.00
2023-05-14T04:59:34.345Z,101119.66
2023-05-14T05:02:04.802Z,101122.34
2023-05-14T05:04:34.698Z,101122.28
2023-05-14T05:07:05.004Z,101123.97
2023-05-14T05:09:35.047Z,101130.31
2023-05-14T05:12:05.600Z,101140.41
2023-05-14T05:14:35.707Z,101140.38
2023-05-14T05:17:06.275Z,101125.59
2023-05-14T05:19:43.818Z,101129.31
2023-05-14T05:22:15.020Z,101126.50
2023-05-14T05:24:45.280Z,101131.03
2023-05-14T05:27:15.789Z,101131.59
2023-05-14T05:29:48.661Z,101131.63
2023-05-14T05:32:19.030Z,101130.00
2023-05-14T05:34:49.119Z,101130.81
2023-05-14T05:37:19.477Z,101129.69
2023-05-14T05:39:49.673Z,101122.31
2023-05-14T05:42:19.985Z,101117.94
2023-05-14T05:44:50.107Z,101118.53
2023-05-14T05:47:20.413Z,101111.03
2023-05-14T05:49:50.527Z,101116.66
2023-05-14T05:52:20.803Z,101117.81
2023-05-14T05:54:50.880Z,101115.06
2023-05-14T05:57:21.185Z,101118.19
2023-05-14T05:59:51.296Z,101126.09
2023-05-14T06:02:22.056Z,101117.38
2023-05-14T06:04:52.276Z,101122.25
2023-05-14T06:07:22.572Z,101109.91
2023-05-14T06:09:52.654Z,101115.06
2023-05-14T06:12:23.047Z,101109.41
2023-05-14T06:14:53.125Z,101111.66
2023-05-14T06:17:23.915Z,101117.13
2023-05-14T06:19:54.632Z,101107.78
2023-05-14T06:22:24.902Z,101114.81
2023-05-14T06:24:55.031Z,101113.22
2023-05-14T06:27:25.302Z,101112.81
2023-05-14T06:29:55.356Z,101115.97
2023-05-14T06:32:25.679Z,101117.00
2023-05-14T06:34:56.255Z,101118.97
2023-05-14T06:37:26.656Z,101118.63
2023-05-14T06:39:57.857Z,101121.09
2023-05-14T06:42:28.556Z,101118.28
2023-05-14T06:44:58.518Z,101124.81
2023-05-14T06:47:28.795Z,101120.72
2023-05-14T06:49:59.814Z,101120.72
2023-05-14T06:52:30.230Z,101120.25
2023-05-14T06:55:00.101Z,101125.34
2023-05-14T06:57:30.376Z,101130.97
2023-05-14T07:00:02.777Z,101127.97
2023-05-14T07:02:33.833Z,101125.78
2023-05-14T07:05:04.259Z,101129.16
2023-05-14T07:07:34.592Z,101135.59
2023-05-14T07:10:05.025Z,101126.34
2023-05-14T07:12:35.339Z,101130.06
2023-05-14T07:15:05.484Z,101143.41
2023-05-14T07:17:35.850Z,101124.97
2023-05-14T07:20:06.256Z,101133.41
2023-05-14T07:22:36.798Z,101130.03
2023-05-14T07:25:07.474Z,101127.47
2023-05-14T07:27:38.281Z,101125.56
2023-05-14T07:30:10.062Z,101123.69
2023-05-14T07:32:40.552Z,101130.53
2023-05-14T07:35:10.991Z,101126.19
2023-05-14T07:37:41.625Z,101129.94
2023-05-14T07:40:11.819Z,101127.03
2023-05-14T07:42:42.146Z,101121.03
2023-05-14T07:45:12.371Z,101125.09
2023-05-14T07:47:42.863Z,101133.44
2023-05-14T07:50:13.765Z,101131.97
2023-05-14T07:52:44.150Z,101134.91
2023-05-14T07:55:14.439Z,101128.72
2023-05-14T07:57:44.769Z,101131.97
2023-05-14T08:00:15.416Z,101131.53
2023-05-14T08:02:46.409Z,101133.16
2023-05-14T08:05:17.052Z,101138.56
2023-05-14T08:07:47.355Z,101141.06
2023-05-14T08:10:17.337Z,101137.38
2023-05-14T08:12:47.664Z,101140.59
2023-05-14T08:15:17.630Z,101146.38
2023-05-14T08:17:48.110Z,101151.94
2023-05-14T08:20:18.194Z,101157.81
2023-05-14T08:22:48.486Z,101159.53
2023-05-14T08:25:18.430Z,101156.81
2023-05-14T08:27:48.809Z,101144.75
2023-05-14T08:30:19.259Z,101159.63
2023-05-14T08:32:49.616Z,101160.41
2023-05-14T08:35:20.223Z,101166.97
2023-05-14T08:37:51.355Z,101164.66
2023-05-14T08:40:21.650Z,101173.25
2023-05-14T08:42:53.947Z,101185.66
2023-05-14T08:45:30.509Z,101183.47
2023-05-14T08:48:02.516Z,101180.97
2023-05-14T08:50:33.202Z,101194.25
2023-05-14T08:53:03.507Z,101194.16
2023-05-14T08:55:34.848Z,101210.31
2023-05-14T08:58:05.318Z,101208.72
2023-05-14T09:00:35.539Z,101224.22
2023-05-14T09:03:08.265Z,101225.59
2023-05-14T09:05:38.559Z,101232.94
2023-05-14T09:08:09.061Z,101239.34
2023-05-14T09:10:38.975Z,101237.78
2023-05-14T09:13:11.202Z,101248.88
2023-05-14T09:15:42.505Z,101249.34
2023-05-14T09:18:12.801Z,101249.50
2023-05-14T09:20:43.303Z,101249.91
2023-05-14T09:23:13.667Z,101253.56
2023-05-14T09:25:44.410Z,101260.25
2023-05-14T09:28:18.445Z,101257.72
2023-05-14T09:30:54.442Z,101264.88
2023-05-14T09:33:29.538Z,101283.22
2023-05-14T09:36:01.949Z,101270.81
2023-05-14T09:38:33.123Z,101274.31
2023-05-14T09:41:03.711Z,101266.63
2023-05-14T09:43:33.417Z,101266.94
2023-05-14T09:46:03.814Z,101261.88
2023-05-14T09:48:33.732Z,101274.19
2023-05-14T09:51:04.879Z,101278.75
2023-05-14T09:53:36.689Z,101291.38
2023-05-14T09:56:07.322Z,101285.88
2023-05-14T09:58:37.360Z,101281.19
2023-05-14T10:01:08.444Z,101279.25
2023-05-14T10:03:38.870Z,101295.03
2023-05-14T10:06:11.686Z,101301.16
2023-05-14T10:08:45.205Z,101299.06
2023-05-14T10:11:22.193Z,101297.63
2023-05-14T10:14:02.225Z,101305.34
2023-05-14T10:16:39.401Z,101310.19
2023-05-14T10:19:13.741Z,101319.53
2023-05-14T10:21:47.335Z,101317.38
2023-05-14T10:24:17.685Z,101330.34
2023-05-14T10:26:48.361Z,101324.06
2023-05-14T10:29:18.747Z,101324.22
2023-05-14T10:31:56.814Z,101334.69
2023-05-14T10:34:33.557Z,101328.97
2023-05-14T10:37:15.395Z,101335.78
2023-05-14T10:40:03.349Z,101336.56
2023-05-14T10:42:44.613Z,101342.38
2023-05-14T10:45:18.736Z,101345.56
2023-05-14T10:47:49.919Z,101350.22
2023-05-14T10:50:20.692Z,101357.00
2023-05-14T10:52:51.197Z,101356.25
2023-05-14T10:55:21.096Z,101356.16
2023-05-14T10:57:51.683Z,101354.22
2023-05-14T11:00:21.946Z,101357.78
2023-05-14T11:02:58.758Z,101352.97
2023-05-14T11:05:28.914Z,101356.06
2023-05-14T11:07:59.802Z,101355.66
2023-05-14T11:10:31.236Z,101353.59
2023-05-14T11:13:01.300Z,101359.38
2023-05-14T11:15:32.551Z,101353.78
2023-05-14T11:18:02.721Z,101358.19
2023-05-14T11:20:33.915Z,101357.78
2023-05-14T11:23:04.701Z,101360.63
2023-05-14T11:25:34.986Z,101355.13
2023-05-14T11:28:05.001Z,101349.00
2023-05-14T11:30:36.425Z,101355.28
2023-05-14T11:33:06.553Z,101364.25
2023-05-14T11:35:38.097Z,101375.34
2023-05-14T11:38:09.302Z,101377.13
2023-05-14T11:40:39.688Z,101379.44
2023-05-14T11:43:10.087Z,101371.84
2023-05-14T11:45:40.523Z,101382.13
2023-05-14T11:48:16.933Z,101389.84
2023-05-14T11:50:52.383Z,101391.28
2023-05-14T11:53:27.829Z,101391.84
2023-05-14T11:56:01.483Z,101394.91
2023-05-14T11:58:37.538Z,101397.59
2023-05-14T12:01:07.921Z,101392.28
2023-05-14T12:03:37.937Z,101393.38
2023-05-14T12:06:09.352Z,101398.19
2023-05-14T12:08:39.327Z,101396.56
2023-05-14T12:11:10.849Z,101390.88
2023-05-14T12:13:41.922Z,101389.69
2023-05-14T12:16:12.364Z,101403.03
2023-05-14T12:18:42.462Z,101398.66
2023-05-14T12:21:13.180Z,101398.13
2023-05-14T12:23:43.360Z,101402.34
2023-05-14T12:26:14.683Z,101409.06
2023-05-14T12:28:44.600Z,101405.47
2023-05-14T12:31:16.951Z,101411.41
2023-05-14T12:33:47.067Z,101409.88
2023-05-14T12:36:21.775Z,101414.44
2023-05-14T12:38:52.846Z,101401.44
2023-05-14T12:41:23.333Z,101407.94
2023-05-14T12:43:53.329Z,101404.81
2023-05-14T12:46:24.264Z,101401.06
2023-05-14T12:48:54.789Z,101402.78
2023-05-14T12:51:25.459Z,101404.34
2023-05-14T12:53:55.479Z,101405.75
2023-05-14T12:56:29.369Z,101402.50
2023-05-14T12:58:59.370Z,101406.91
2023-05-14T13:01:29.714Z,101403.41
2023-05-14T13:04:00.854Z,101399.41
2023-05-14T13:06:32.801Z,101393.13
2023-05-14T13:09:03.625Z,101394.09
2023-05-14T13:11:34.167Z,101390.84
2023-05-14T13:14:05.049Z,101392.03
2023-05-14T13:16:35.467Z,101388.41
2023-05-14T13:19:05.522Z,101397.13
2023-05-14T13:21:35.844Z,101392.13
2023-05-14T13:24:05.999Z,101393.09
2023-05-14T13:26:36.499Z,101396.06
2023-05-14T13:29:06.527Z,101387.69
2023-05-14T13:31:37.550Z,101379.22
2023-05-14T13:34:09.183Z,101380.84
2023-05-14T13:36:40.832Z,101368.63
2023-05-14T13:39:14.297Z,101365.56
2023-05-14T13:41:44.994Z,101370.78
2023-05-14T13:44:14.905Z,101373.81
2023-05-14T13:46:45.267Z,101369.44
2023-05-14T13:49:15.220Z,101370.16
2023-05-14T13:51:45.914Z,101363.09
2023-05-14T13:54:15.902Z,101374.59
2023-05-14T13:56:46.197Z,101363.03
2023-05-14T13:59:16.408Z,101362.44
2023-05-14T14:01:46.888Z,101361.28
2023-05-14T14:04:17.668Z,101350.94
2023-05-14T14:06:48.088Z,101353.25
2023-05-14T14:09:18.183Z,101347.41
2023-05-14T14:11:49.045Z,101349.75
2023-05-14T14:14:19.562Z,101350.09
2023-05-14T14:16:49.896Z,101336.66
2023-05-14T14:19:20.310Z,101335.34
2023-05-14T14:24:25.636Z,101332.13
2023-05-14T14:26:55.979Z,101334.16
2023-05-14T14:29:25.926Z,101331.91
2023-05-14T14:31:56.341Z,101326.69
2023-05-14T14:34:26.709Z,101327.13
2023-05-14T14:36:57.007Z,101311.13
2023-05-14T14:39:27.656Z,101316.50
2023-05-14T14:41:57.944Z,101301.59
2023-05-14T14:44:27.946Z,101307.13
2023-05-14T14:46:58.244Z,101312.03
2023-05-14T14:49:29.707Z,101314.44
2023-05-14T14:52:00.320Z,101311.47
2023-05-14T14:54:30.282Z,101313.16
2023-05-14T14:57:00.592Z,101317.88
2023-05-14T14:59:30.756Z,101303.22
2023-05-14T15:02:01.153Z,101313.75
2023-05-14T15:04:34.461Z,101294.84
2023-05-14T15:07:04.905Z,101292.03
2023-05-14T15:09:34.832Z,101290.72
2023-05-14T15:12:05.258Z,101284.06
2023-05-14T15:14:35.255Z,101295.38
2023-05-14T15:17:05.803Z,101290.41
2023-05-14T15:19:35.816Z,101288.44
2023-05-14T15:22:06.551Z,101282.78
2023-05-14T15:24:36.511Z,101278.47
2023-05-14T15:27:07.022Z,101274.81
2023-05-14T15:29:37.004Z,101277.09
2023-05-14T15:32:08.030Z,101284.97
2023-05-14T15:34:38.106Z,101275.94
2023-05-14T15:37:08.604Z,101271.09
2023-05-14T15:39:38.550Z,101259.88
2023-05-14T15:42:09.015Z,101260.13
2023-05-14T15:44:39.187Z,101248.13
2023-05-14T15:47:09.641Z,101241.59
2023-05-14T15:49:39.714Z,101237.56
2023-05-14T15:52:10.078Z,101229.53
2023-05-14T15:54:40.003Z,101231.19
2023-05-14T15:57:10.291Z,101216.25
2023-05-14T15:59:40.644Z,101221.50
2023-05-14T16:02:11.080Z,101225.94
2023-05-14T16:04:41.047Z,101219.63
2023-05-14T16:07:12.025Z,101213.72
2023-05-14T16:09:41.978Z,101213.25
2023-05-14T16:12:13.476Z,101206.81
2023-05-14T16:14:43.468Z,101212.28
2023-05-14T16:17:13.835Z,101203.94
2023-05-14T16:19:44.064Z,101199.03
2023-05-14T16:22:14.406Z,101196.72
2023-05-14T16:24:45.924Z,101194.00
2023-05-14T16:27:15.985Z,101184.59
2023-05-14T16:29:46.114Z,101180.31
2023-05-14T16:32:17.196Z,101176.22
2023-05-14T16:34:50.869Z,101173.56
2023-05-14T16:37:21.759Z,101174.69
2023-05-14T16:39:51.788Z,101168.47
2023-05-14T16:42:22.349Z,101158.78
2023-05-14T16:44:52.400Z,101157.28
2023-05-14T16:47:22.655Z,101152.81
2023-05-14T16:49:52.517Z,101159.56
2023-05-14T16:52:22.829Z,101150.66
2023-05-14T16:54:52.789Z,101157.00
2023-05-14T16:57:24.949Z,101149.53
2023-05-14T16:59:55.189Z,101137.63
2023-05-14T17:02:25.506Z,101133.75
2023-05-14T17:04:56.498Z,101129.66
2023-05-14T17:07:27.064Z,101137.66
2023-05-14T17:09:57.035Z,101128.97
2023-05-14T17:12:27.841Z,101126.00
2023-05-14T17:14:57.719Z,101114.47
2023-05-14T17:17:27.983Z,101111.69
2023-05-14T17:19:58.129Z,101109.81
2023-05-14T17:22:28.458Z,101118.66
2023-05-14T17:24:58.431Z,101111.03
2023-05-14T17:27:30.356Z,101108.81
2023-05-14T17:30:01.432Z,101118.69
2023-05-14T17:32:32.879Z,101112.09
2023-05-14T17:35:02.919Z,101112.94
2023-05-14T17:37:33.316Z,101115.03
2023-05-14T17:40:03.253Z,101122.19
2023-05-14T17:42:33.558Z,101111.50
2023-05-14T17:45:03.557Z,101117.59
2023-05-14T17:47:33.824Z,101109.81
2023-05-14T17:50:03.790Z,101106.78
2023-05-14T17:52:34.076Z,101115.03
2023-05-14T17:55:04.021Z,101120.72
2023-05-14T17:57:34.384Z,101118.06
2023-05-14T18:00:05.976Z,101114.22
2023-05-14T18:02:40.832Z,101115.28
2023-05-14T18:05:11.080Z,101114.06
2023-05-14T18:07:42.223Z,101107.19
2023-05-14T18:10:12.321Z,101114.00
2023-05-14T18:12:42.812Z,101116.34
2023-05-14T18:15:12.951Z,101111.09
2023-05-14T18:17:43.417Z,101119.41
2023-05-14T18:20:13.907Z,101124.31
2023-05-14T18:22:44.218Z,101129.41
2023-05-14T18:25:14.824Z,101135.00
2023-05-14T18:27:48.163Z,101142.47
2023-05-14T18:30:18.139Z,101143.88
2023-05-14T18:32:47.934Z,101147.84
2023-05-14T18:35:18.248Z,101133.75
2023-05-14T18:37:48.744Z,101135.53
2023-05-14T18:40:19.066Z,101140.28
2023-05-14T18:42:49.657Z,101135.47
2023-05-14T18:45:19.683Z,101143.00
2023-05-14T18:47:50.069Z,101139.13
2023-05-14T18:50:20.074Z,101143.47
2023-05-14T18:52:50.393Z,101131.03
2023-05-14T18:55:20.305Z,101139.81
2023-05-14T18:57:50.897Z,101144.31
2023-05-14T19:00:21.063Z,101144.34
2023-05-14T19:02:51.548Z,101144.59
2023-05-14T19:05:22.241Z,101151.38
2023-05-14T19:07:52.859Z,101148.97
2023-05-14T19:10:22.822Z,101152.41
2023-05-14T19:12:53.184Z,101153.81
2023-05-14T19:15:23.254Z,101148.75
2023-05-14T19:17:55.104Z,101145.91
2023-05-14T19:20:25.063Z,101147.50
2023-05-14T19:22:55.393Z,101156.19
2023-05-14T19:25:28.514Z,101145.75
2023-05-14T19:28:02.575Z,101161.94
2023-05-14T19:30:33.025Z,101161.13
2023-05-14T19:33:04.446Z,101161.75
2023-05-14T19:35:36.119Z,101172.50
2023-05-14T19:38:06.589Z,101181.19
2023-05-14T19:40:36.503Z,101173.84
2023-05-14T19:43:08.978Z,101169.09
2023-05-14T19:45:40.292Z,101185.47
2023-05-14T19:48:10.879Z,101186.03
2023-05-14T19:50:41.078Z,101186.91
2023-05-14T19:53:11.627Z,101190.56
2023-05-14T19:55:41.605Z,101198.69
2023-05-14T19:58:12.505Z,101197.06
2023-05-14T20:00:43.195Z,101200.28
2023-05-14T20:03:14.527Z,101200.59
2023-05-14T20:05:50.110Z,101199.16
2023-05-14T20:08:21.831Z,101196.28
2023-05-14T20:10:52.262Z,101189.06
2023-05-14T20:13:24.482Z,101185.41
2023-05-14T20:15:56.178Z,101193.16
2023-05-14T20:18:27.184Z,101195.50
2023-05-14T20:20:57.218Z,101199.22
2023-05-14T20:23:27.585Z,101194.84
2023-05-14T20:25:57.980Z,101203.88
2023-05-14T20:28:28.309Z,101201.25
2023-05-14T20:31:00.044Z,101200.78
2023-05-14T20:33:30.587Z,101206.03
2023-05-14T20:36:00.454Z,101212.81
2023-05-14T20:38:32.335Z,101211.91
2023-05-14T20:41:02.264Z,101214.97
2023-05-14T20:43:32.723Z,101211.09
2023-05-14T20:46:02.758Z,101212.78
2023-05-14T20:48:33.082Z,101211.81
2023-05-14T20:51:05.880Z,101221.09
2023-05-14T20:53:36.575Z,101228.84
2023-05-14T20:56:07.782Z,101227.50
2023-05-14T20:58:38.146Z,101223.91
2023-05-14T21:01:09.187Z,101225.69
2023-05-14T21:03:39.660Z,101223.44
2023-05-14T21:06:09.716Z,101233.50
2023-05-14T21:08:41.440Z,101236.56
2023-05-14T21:11:11.557Z,101231.38
2023-05-14T21:13:41.902Z,101233.03
2023-05-14T21:16:13.830Z,101231.63
2023-05-14T21:18:43.839Z,101236.28
2023-05-14T21:21:14.217Z,101239.53
2023-05-14T21:23:44.184Z,101237.91
2023-05-14T21:26:14.583Z,101235.09
2023-05-14T21:28:44.315Z,101240.47
2023-05-14T21:31:14.666Z,101244.50
2023-05-14T21:33:44.425Z,101245.06
2023-05-14T21:36:14.881Z,101252.38
2023-05-14T21:38:45.299Z,101254.44
2023-05-14T21:41:15.709Z,101257.19
2023-05-14T21:43:46.294Z,101262.78
2023-05-14T21:46:17.432Z,101260.91
2023-05-14T21:48:47.454Z,101273.28
2023-05-14T21:51:17.877Z,101269.25
2023-05-14T21:53:49.449Z,101272.41
2023-05-14T21:56:19.880Z,101271.66
2023-05-14T21:58:49.778Z,101270.41
2023-05-14T22:01:19.578Z,101283.06
2023-05-14T22:03:50.086Z,101283.78
2023-05-14T22:06:20.106Z,101274.22
2023-05-14T22:08:50.489Z,101286.75
2023-05-14T22:11:20.462Z,101290.34
2023-05-14T22:13:50.813Z,101284.97
2023-05-14T22:16:20.663Z,101283.31
2023-05-14T22:18:51.008Z,101278.28
2023-05-14T22:21:21.060Z,101289.09
2023-05-14T22:23:51.491Z,101291.97
2023-05-14T22:26:22.992Z,101292.72
2023-05-14T22:28:53.707Z,101287.63
2023-05-14T22:31:23.704Z,101288.88
2023-05-14T22:33:54.751Z,101286.31
2023-05-14T22:36:25.576Z,101293.50
2023-05-14T22:38:56.075Z,101292.78
2023-05-14T22:41:26.057Z,101301.91
2023-05-14T22:43:56.506Z,101311.72
2023-05-14T22:46:26.563Z,101309.31
2023-05-14T22:48:56.915Z,101311.72
2023-05-14T22:51:27.167Z,101320.44
2023-05-14T22:53:57.570Z,101322.13
2023-05-14T22:56:27.479Z,101322.38
2023-05-14T22:58:58.317Z,101335.34
2023-05-14T23:01:29.452Z,101334.38
2023-05-14T23:03:59.849Z,101335.22
2023-05-14T23:06:31.392Z,101337.59
2023-05-14T23:09:01.746Z,101345.09
2023-05-14T23:11:31.758Z,101339.50
2023-05-14T23:14:02.369Z,101344.28
2023-05-14T23:16:33.020Z,101353.81
2023-05-14T23:19:03.720Z,101360.28
2023-05-14T23:21:34.152Z,101355.38
2023-05-14T23:24:04.601Z,101361.03
2023-05-14T23:26:34.676Z,101368.72
2023-05-14T23:29:05.066Z,101385.38
2023-05-14T23:31:35.082Z,101373.97
2023-05-14T23:34:05.470Z,101380.38
2023-05-14T23:36:35.989Z,101380.16
2023-05-14T23:39:06.868Z,101377.06
2023-05-14T23:41:36.883Z,101365.28
2023-05-14T23:44:08.387Z,101364.97
2023-05-14T23:46:38.436Z,101364.81
2023-05-14T23:49:08.832Z,101360.72
2023-05-14T23:51:38.936Z,101356.84
2023-05-14T23:54:09.226Z,101364.09
2023-05-14T23:56:39.183Z,101372.22
2023-05-14T23:59:09.120Z,101360.66
